Terminal Aerodrome Forecast
Issued by NWS

Home | Current Version | Previous Version | Text Only | Print | Product List | Glossary On
Versions: 1 2 3 4 5 6 7 8 9 10 11 12 13 14 15 16 17 18 19 20 21 22 23 24 25 26 27 28 29 30 31 32 33
000
FTUS43 KDLH 260500
TAFBRD
TAF
KBRD 260539Z 2606/2706 19008G15KT P6SM -SN BKN017 OVC050
      TEMPO 2606/2608 3SM -SN BR OVC010
     FM260800 19008G16KT 6SM -SN BR OVC015
      TEMPO 2608/2611 2SM -SN
     FM261400 26006KT P6SM -SN OVC015
     FM261800 30008KT P6SM OVC019
     FM270200 33006KT P6SM OVC018=

USA.gov is the U.S. government's official web portal to all federal, state and local government web resources and services.